createdAt,value
2018-11-26T00:00:47.568Z,90.30
2018-11-26T00:03:14.224Z,90.60
2018-11-26T00:05:41.559Z,90.60
2018-11-26T00:08:12.584Z,91.10
2018-11-26T00:10:43.682Z,92.20
2018-11-26T00:13:10.826Z,92.30
2018-11-26T00:15:38.564Z,91.50
2018-11-26T00:18:06.346Z,91.30
2018-11-26T00:20:33.082Z,90.70
2018-11-26T00:23:06.424Z,90.50
2018-11-26T00:25:35.578Z,90.30
2018-11-26T00:28:03.039Z,90.70
2018-11-26T00:30:31.900Z,90.70
2018-11-26T00:33:08.488Z,90.60
2018-11-26T00:35:35.192Z,90.90
2018-11-26T00:38:02.876Z,91.20
2018-11-26T00:40:33.793Z,91.10
2018-11-26T00:45:48.395Z,90.60
2018-11-26T00:48:16.081Z,90.90
2018-11-26T00:50:45.100Z,90.90
2018-11-26T00:53:12.553Z,90.70
2018-11-26T00:55:40.741Z,90.80
2018-11-26T00:58:08.435Z,91.40
2018-11-26T01:00:36.033Z,91.70
2018-11-26T01:03:03.146Z,92.10
2018-11-26T01:05:32.015Z,91.50
2018-11-26T01:08:03.326Z,91.10
2018-11-26T01:10:32.131Z,91.10
2018-11-26T01:12:59.591Z,90.80
2018-11-26T01:15:26.050Z,90.50
2018-11-26T01:17:53.471Z,90.30
2018-11-26T01:20:20.219Z,90.30
2018-11-26T01:22:47.915Z,90.60
2018-11-26T01:25:15.341Z,90.50
2018-11-26T01:30:41.331Z,90.00
2018-11-26T01:33:14.797Z,90.00
2018-11-26T01:35:44.862Z,89.70
2018-11-26T01:38:22.322Z,90.00
2018-11-26T01:43:35.797Z,91.40
2018-11-26T01:46:04.701Z,92.30
2018-11-26T01:48:33.631Z,92.60
2018-11-26T01:51:01.727Z,92.10
2018-11-26T01:53:29.130Z,92.20
2018-11-26T01:55:55.896Z,91.80
2018-11-26T01:58:26.058Z,92.60
2018-11-26T02:00:54.715Z,92.50
2018-11-26T02:08:54.353Z,91.70
2018-11-26T02:11:21.786Z,91.30
2018-11-26T02:16:35.212Z,91.90
2018-11-26T02:19:02.553Z,91.80
2018-11-26T02:21:30.682Z,91.60
2018-11-26T02:23:57.163Z,91.80
2018-11-26T02:26:23.623Z,92.30
2018-11-26T02:34:29.251Z,91.10
2018-11-26T02:36:57.414Z,90.80
2018-11-26T02:39:28.171Z,90.80
2018-11-26T02:41:59.815Z,91.30
2018-11-26T02:47:17.013Z,91.00
2018-11-26T02:49:45.082Z,90.50
2018-11-26T02:52:14.826Z,91.40
2018-11-26T02:57:28.578Z,92.10
2018-11-26T02:59:59.424Z,91.50
2018-11-26T03:05:15.149Z,90.80
2018-11-26T03:07:43.287Z,90.30
2018-11-26T03:10:10.543Z,90.50
2018-11-26T03:12:40.085Z,90.60
2018-11-26T03:15:08.273Z,90.20
2018-11-26T03:17:39.384Z,90.10
2018-11-26T03:22:52.423Z,91.50
2018-11-26T03:25:18.894Z,91.80
2018-11-26T03:27:45.356Z,92.50
2018-11-26T03:30:16.251Z,92.40
2018-11-26T03:32:43.937Z,92.00
2018-11-26T03:35:11.670Z,91.40
2018-11-26T03:37:38.369Z,91.40
2018-11-26T03:40:04.845Z,90.70
2018-11-26T03:42:31.562Z,90.50
2018-11-26T03:44:59.015Z,90.80
2018-11-26T03:47:27.293Z,90.60
2018-11-26T03:49:54.742Z,90.70
2018-11-26T03:52:23.867Z,90.90
2018-11-26T03:54:55.119Z,90.90
2018-11-26T03:57:21.546Z,90.90
2018-11-26T03:59:59.003Z,90.80
2018-11-26T04:02:30.602Z,91.20
2018-11-26T04:04:58.011Z,90.90
2018-11-26T04:07:26.425Z,90.60
2018-11-26T04:09:53.895Z,90.70
2018-11-26T04:15:08.618Z,90.40
2018-11-26T04:17:35.047Z,90.40
2018-11-26T04:25:36.767Z,91.00
2018-11-26T04:30:52.592Z,90.30
2018-11-26T04:33:21.609Z,90.50
2018-11-26T04:38:37.239Z,90.60
2018-11-26T04:41:06.225Z,90.30
2018-11-26T04:43:34.712Z,90.00
2018-11-26T04:46:04.176Z,90.20
2018-11-26T04:48:33.495Z,90.30
2018-11-26T04:51:00.670Z,90.70
2018-11-26T04:53:29.321Z,91.10
2018-11-26T04:55:55.805Z,90.60
2018-11-26T04:58:23.479Z,91.00
2018-11-26T05:00:57.878Z,90.90
2018-11-26T05:03:27.379Z,90.70
2018-11-26T05:05:56.362Z,90.70
2018-11-26T05:08:22.757Z,90.50
2018-11-26T05:10:52.385Z,90.50
2018-11-26T05:16:08.308Z,90.70
2018-11-26T05:18:35.740Z,91.00
2018-11-26T05:21:02.178Z,91.30
2018-11-26T05:23:38.704Z,91.20
2018-11-26T05:26:06.153Z,91.70
2018-11-26T05:28:34.070Z,91.40
2018-11-26T05:33:50.311Z,91.20
2018-11-26T05:36:20.250Z,91.30
2018-11-26T05:38:51.050Z,91.30
2018-11-26T05:41:21.276Z,91.70
2018-11-26T05:44:06.069Z,91.50
2018-11-26T05:46:34.735Z,91.20
2018-11-26T05:49:03.148Z,91.30
2018-11-26T05:51:30.866Z,91.10
2018-11-26T05:54:01.500Z,91.50
2018-11-26T05:56:28.958Z,91.10
2018-11-26T05:58:58.059Z,90.90
2018-11-26T06:01:26.855Z,90.50
2018-11-26T06:03:55.661Z,90.80
2018-11-26T06:06:25.454Z,91.00
2018-11-26T06:08:52.628Z,91.20
2018-11-26T06:11:23.979Z,90.80
2018-11-26T06:13:52.184Z,90.80
2018-11-26T06:16:19.610Z,91.00
2018-11-26T06:18:50.473Z,91.50
2018-11-26T06:21:20.213Z,91.40
2018-11-26T06:23:50.830Z,92.00
2018-11-26T06:26:17.277Z,91.40
2018-11-26T06:28:43.757Z,91.80
2018-11-26T06:31:11.358Z,91.50
2018-11-26T06:33:41.792Z,91.30
2018-11-26T06:36:09.275Z,91.20
2018-11-26T06:38:36.741Z,91.10
2018-11-26T06:41:04.186Z,91.00
2018-11-26T06:43:30.733Z,90.90
2018-11-26T06:45:58.185Z,91.40
2018-11-26T06:48:29.008Z,90.90
2018-11-26T06:50:56.173Z,91.90
2018-11-26T06:53:23.588Z,92.90
2018-11-26T06:55:50.007Z,92.30
2018-11-26T07:01:05.151Z,91.90
2018-11-26T07:03:31.598Z,92.50
2018-11-26T07:06:01.040Z,92.20
2018-11-26T07:08:27.473Z,92.00
2018-11-26T07:10:58.102Z,92.30
2018-11-26T07:13:25.536Z,92.20
2018-11-26T07:15:56.090Z,91.50
2018-11-26T07:18:22.801Z,91.70
2018-11-26T07:20:56.607Z,91.70
2018-11-26T07:23:25.436Z,91.50
2018-11-26T07:25:52.135Z,90.90
2018-11-26T07:28:19.008Z,91.00
2018-11-26T07:30:46.451Z,91.70
2018-11-26T07:33:13.672Z,92.30
2018-11-26T07:35:41.117Z,92.70
2018-11-26T07:38:09.731Z,92.60
2018-11-26T07:40:36.622Z,92.70
2018-11-26T07:43:05.246Z,91.90
2018-11-26T07:45:32.912Z,92.20
2018-11-26T07:47:59.377Z,92.20
2018-11-26T07:50:25.800Z,92.30
2018-11-26T07:52:56.492Z,92.20
2018-11-26T07:55:26.052Z,92.80
2018-11-26T07:57:53.478Z,92.90
2018-11-26T08:03:08.469Z,92.90
2018-11-26T08:05:35.922Z,93.30
2018-11-26T08:08:07.502Z,93.50
2018-11-26T08:10:35.017Z,94.10
2018-11-26T08:13:04.105Z,93.60
2018-11-26T08:15:30.530Z,93.50
2018-11-26T08:17:59.537Z,92.90
2018-11-26T08:20:33.586Z,92.50
2018-11-26T08:23:04.461Z,92.40
2018-11-26T08:25:33.363Z,92.70
2018-11-26T08:27:59.902Z,93.00
2018-11-26T08:30:33.694Z,92.90
2018-11-26T08:33:02.822Z,92.80
2018-11-26T08:35:30.578Z,91.90
2018-11-26T08:37:57.003Z,92.40
2018-11-26T08:40:23.474Z,92.10
2018-11-26T08:42:54.259Z,92.30
2018-11-26T08:45:22.013Z,91.70
2018-11-26T08:47:50.580Z,91.90
2018-11-26T08:50:18.037Z,92.30
2018-11-26T08:52:46.605Z,92.60
2018-11-26T08:55:13.576Z,91.90
2018-11-26T08:57:40.041Z,92.30
2018-11-26T09:00:10.464Z,91.60
2018-11-26T09:05:24.365Z,92.40
2018-11-26T09:07:52.474Z,93.00
2018-11-26T09:10:19.924Z,93.50
2018-11-26T09:12:47.576Z,93.00
2018-11-26T09:18:03.867Z,92.70
2018-11-26T09:20:32.441Z,92.80
2018-11-26T09:22:59.164Z,93.20
2018-11-26T09:25:30.009Z,93.10
2018-11-26T09:30:43.132Z,93.10
2018-11-26T09:33:10.877Z,93.10
2018-11-26T09:35:37.620Z,92.70
2018-11-26T09:38:06.214Z,92.20
2018-11-26T09:43:22.141Z,92.60
2018-11-26T09:45:49.594Z,92.90
2018-11-26T09:48:16.013Z,92.20
2018-11-26T09:50:42.739Z,92.90
2018-11-26T09:53:10.186Z,93.00
2018-11-26T09:55:51.309Z,93.10
2018-11-26T09:58:20.773Z,93.00
2018-11-26T10:00:48.218Z,92.80
2018-11-26T10:03:19.087Z,92.90
2018-11-26T10:05:46.532Z,93.40
2018-11-26T10:08:14.241Z,93.30
2018-11-26T10:10:45.382Z,93.90
2018-11-26T10:13:12.725Z,93.30
2018-11-26T10:15:42.372Z,93.30
2018-11-26T10:20:58.118Z,93.30
2018-11-26T10:23:24.819Z,92.70
2018-11-26T10:28:42.033Z,93.60
2018-11-26T10:31:12.455Z,93.60
2018-11-26T10:33:40.993Z,93.20
2018-11-26T10:36:10.654Z,92.90
2018-11-26T10:38:37.314Z,93.10
2018-11-26T10:43:53.000Z,93.90
2018-11-26T10:46:21.711Z,93.80
2018-11-26T10:48:48.407Z,94.10
2018-11-26T10:51:15.907Z,92.80
2018-11-26T10:53:43.318Z,92.40
2018-11-26T10:56:14.351Z,93.00
2018-11-26T10:58:41.175Z,92.40
2018-11-26T11:01:08.694Z,93.00
2018-11-26T11:03:53.263Z,92.80
2018-11-26T11:09:09.414Z,93.20
2018-11-26T11:11:36.590Z,93.20
2018-11-26T11:14:03.023Z,92.70
2018-11-26T11:16:30.491Z,92.40
2018-11-26T11:19:01.798Z,92.50
2018-11-26T11:21:28.220Z,93.20
2018-11-26T11:23:55.643Z,93.40
2018-11-26T11:26:28.238Z,93.00
2018-11-26T11:28:54.467Z,92.70
2018-11-26T11:31:38.724Z,93.00
2018-11-26T11:34:05.443Z,93.40
2018-11-26T11:36:34.020Z,93.10
2018-11-26T11:39:01.465Z,92.90
2018-11-26T11:41:34.301Z,93.10
2018-11-26T11:44:01.779Z,93.00
2018-11-26T11:46:28.557Z,92.60
2018-11-26T11:48:57.345Z,93.00
2018-11-26T11:51:27.210Z,92.80
2018-11-26T11:53:54.639Z,93.10
2018-11-26T11:56:24.003Z,92.60
2018-11-26T11:58:53.931Z,92.80
2018-11-26T12:01:24.674Z,93.10
2018-11-26T12:03:51.918Z,93.40
2018-11-26T12:09:10.324Z,92.50
2018-11-26T12:11:41.204Z,93.40
2018-11-26T12:14:07.896Z,92.90
2018-11-26T12:16:37.748Z,92.80
2018-11-26T12:19:04.857Z,93.60
2018-11-26T12:21:32.351Z,93.20
2018-11-26T12:24:07.863Z,92.00
2018-11-26T12:26:46.109Z,92.00
2018-11-26T12:29:12.842Z,93.70
2018-11-26T12:31:39.587Z,94.10
2018-11-26T12:34:08.250Z,93.10
2018-11-26T12:39:07.742Z,92.80
2018-11-26T12:41:35.926Z,92.50
2018-11-26T12:44:04.916Z,92.10
2018-11-26T12:49:18.779Z,92.70
2018-11-26T12:51:45.474Z,91.90
2018-11-26T12:54:15.605Z,92.40
2018-11-26T12:56:45.825Z,92.40
2018-11-26T12:59:15.402Z,91.10
2018-11-26T13:01:44.482Z,92.10
2018-11-26T13:04:10.966Z,92.00
2018-11-26T13:06:40.643Z,92.20
2018-11-26T13:09:09.477Z,92.00
2018-11-26T13:14:27.494Z,91.80
2018-11-26T13:19:44.036Z,91.40
2018-11-26T13:22:13.510Z,90.10
2018-11-26T13:24:39.935Z,90.80
2018-11-26T13:27:23.392Z,90.30
2018-11-26T13:29:50.419Z,90.70
2018-11-26T13:32:17.883Z,90.70
2018-11-26T13:34:48.764Z,91.50
2018-11-26T13:37:15.389Z,91.50
2018-11-26T13:39:41.805Z,91.50
2018-11-26T13:42:12.504Z,91.90
2018-11-26T13:44:39.234Z,91.90
2018-11-26T13:48:26.608Z,92.00
2018-11-26T13:49:35.551Z,91.50
2018-11-26T13:52:03.255Z,92.10
2018-11-26T13:54:30.728Z,92.50
2018-11-26T13:57:01.371Z,91.90
2018-11-26T13:59:32.067Z,91.50
2018-11-26T14:02:02.769Z,91.00
2018-11-26T14:04:32.671Z,91.40
2018-11-26T14:07:01.157Z,91.40
2018-11-26T14:09:28.912Z,91.30
2018-11-26T14:11:55.702Z,91.30
2018-11-26T14:14:22.430Z,91.00
2018-11-26T14:19:36.486Z,91.50
2018-11-26T14:22:04.567Z,91.10
2018-11-26T14:24:32.041Z,91.30
2018-11-26T14:26:59.281Z,92.00
2018-11-26T14:29:26.592Z,91.70
2018-11-26T14:31:53.310Z,91.50
2018-11-26T14:34:23.538Z,91.90
2018-11-26T14:36:50.246Z,92.00
2018-11-26T14:39:37.178Z,91.00
2018-11-26T14:42:05.912Z,91.30
2018-11-26T14:44:33.366Z,91.20
2018-11-26T14:46:59.824Z,91.80
2018-11-26T14:49:29.252Z,91.80
2018-11-26T14:52:00.863Z,92.00
2018-11-26T14:54:30.426Z,92.30
2018-11-26T14:56:58.416Z,92.10
2018-11-26T14:59:36.258Z,92.60
2018-11-26T15:02:03.708Z,92.00
2018-11-26T15:04:32.498Z,91.30
2018-11-26T15:06:58.939Z,91.20
2018-11-26T15:09:26.390Z,91.20
2018-11-26T15:11:55.755Z,91.70
2018-11-26T15:14:22.406Z,91.80
2018-11-26T15:16:49.881Z,91.70
2018-11-26T15:19:20.522Z,92.40
2018-11-26T15:21:47.980Z,92.80
2018-11-26T15:24:20.380Z,92.80
2018-11-26T15:26:53.257Z,93.30
2018-11-26T15:32:07.047Z,93.00
2018-11-26T15:34:36.898Z,92.80
2018-11-26T15:37:04.445Z,92.40
2018-11-26T15:39:33.219Z,92.50
2018-11-26T15:42:00.671Z,91.90
2018-11-26T15:44:29.403Z,91.70
2018-11-26T15:46:57.132Z,91.80
2018-11-26T15:49:27.949Z,91.40
2018-11-26T15:51:57.913Z,91.40
2018-11-26T15:54:32.067Z,92.00
2018-11-26T15:56:59.537Z,91.10
2018-11-26T15:59:28.346Z,91.20
2018-11-26T16:01:58.369Z,91.10
2018-11-26T16:04:42.245Z,91.30
2018-11-26T16:07:11.889Z,90.60
2018-11-26T16:09:38.360Z,91.30
2018-11-26T16:12:11.284Z,91.20
2018-11-26T16:14:47.388Z,91.10
2018-11-26T16:17:14.839Z,91.00
2018-11-26T16:19:42.545Z,91.10
2018-11-26T16:22:11.680Z,91.00
2018-11-26T16:24:39.130Z,91.00
2018-11-26T16:27:09.707Z,91.50
2018-11-26T16:29:39.298Z,91.80
2018-11-26T16:32:06.759Z,91.70
2018-11-26T16:34:34.195Z,91.60
2018-11-26T16:37:03.163Z,91.90
2018-11-26T16:39:30.963Z,91.50
2018-11-26T16:41:58.912Z,91.20
2018-11-26T16:44:28.872Z,91.50
2018-11-26T16:47:05.518Z,91.40
2018-11-26T16:49:32.994Z,91.30
2018-11-26T16:52:02.796Z,91.00
2018-11-26T16:54:31.550Z,91.00
2018-11-26T16:59:55.458Z,91.50
2018-11-26T17:02:22.930Z,91.80
2018-11-26T17:04:51.741Z,91.20
2018-11-26T17:07:18.187Z,90.50
2018-11-26T17:09:46.522Z,91.00
2018-11-26T17:15:02.235Z,90.70
2018-11-26T17:17:31.175Z,90.90
2018-11-26T17:20:00.814Z,91.70
2018-11-26T17:22:29.098Z,91.60
2018-11-26T17:25:26.093Z,91.20
2018-11-26T17:27:53.008Z,90.80
2018-11-26T17:30:22.337Z,90.10
2018-11-26T17:32:49.804Z,89.30
2018-11-26T17:35:19.797Z,90.10
2018-11-26T17:37:49.969Z,88.70
2018-11-26T17:40:17.436Z,89.00
2018-11-26T17:42:44.854Z,89.60
2018-11-26T17:45:11.259Z,89.70
2018-11-26T17:47:37.705Z,90.10
2018-11-26T17:50:06.312Z,90.00
2018-11-26T17:52:37.267Z,89.00
2018-11-26T17:55:15.630Z,88.60
2018-11-26T17:57:43.732Z,89.10
2018-11-26T18:00:12.292Z,90.10
2018-11-26T18:02:42.156Z,90.30
2018-11-26T18:05:16.099Z,90.00
2018-11-26T18:07:46.711Z,87.90
2018-11-26T18:10:15.356Z,87.70
2018-11-26T18:12:44.748Z,88.60
2018-11-26T18:15:11.660Z,89.60
2018-11-26T18:17:38.873Z,88.70
2018-11-26T18:20:09.757Z,88.70
2018-11-26T18:22:37.523Z,89.90
2018-11-26T18:25:05.223Z,89.60
2018-11-26T18:27:32.268Z,87.30
2018-11-26T18:30:02.942Z,87.30
2018-11-26T18:32:33.622Z,87.40
2018-11-26T18:35:02.274Z,87.00
2018-11-26T18:37:29.728Z,86.10
2018-11-26T18:39:57.440Z,87.20
2018-11-26T18:42:26.279Z,87.80
2018-11-26T18:44:53.718Z,87.50
2018-11-26T18:47:21.195Z,88.10
2018-11-26T18:49:47.637Z,86.90
2018-11-26T18:52:17.098Z,86.40
2018-11-26T18:54:44.548Z,87.30
2018-11-26T18:57:11.230Z,88.40
2018-11-26T18:59:41.748Z,88.20
2018-11-26T19:02:08.181Z,89.40
2018-11-26T19:07:21.435Z,88.10
2018-11-26T19:09:48.388Z,89.10
2018-11-26T19:12:16.082Z,88.80
2018-11-26T19:17:31.644Z,88.60
2018-11-26T19:19:58.314Z,90.20
2018-11-26T19:22:25.788Z,90.20
2018-11-26T19:24:54.703Z,90.10
2018-11-26T19:27:24.309Z,89.90
2018-11-26T19:29:52.053Z,89.30
2018-11-26T19:35:06.548Z,89.80
2018-11-26T19:37:35.891Z,90.10
2018-11-26T19:40:19.636Z,90.70
2018-11-26T19:42:46.081Z,90.90
2018-11-26T19:45:15.812Z,90.40
2018-11-26T19:47:43.248Z,90.50
2018-11-26T19:50:11.425Z,90.50
2018-11-26T19:52:38.204Z,89.90
2018-11-26T19:55:07.393Z,90.20
2018-11-26T19:57:34.873Z,90.00
2018-11-26T20:00:01.568Z,90.50
2018-11-26T20:02:28.995Z,87.90
2018-11-26T20:04:56.449Z,89.20
2018-11-26T20:07:25.537Z,89.50
2018-11-26T20:09:52.969Z,87.30
2018-11-26T20:12:22.529Z,88.60
2018-11-26T20:14:50.093Z,87.60
2018-11-26T20:17:17.555Z,86.70
2018-11-26T20:19:46.242Z,88.50
2018-11-26T20:22:13.328Z,88.90
2018-11-26T20:24:40.783Z,89.10
2018-11-26T20:27:08.250Z,89.50
2018-11-26T20:29:45.966Z,89.70
2018-11-26T20:32:16.315Z,88.30
2018-11-26T20:34:44.593Z,84.90
2018-11-26T20:37:11.859Z,86.60
2018-11-26T20:39:38.315Z,85.90
2018-11-26T20:42:16.444Z,86.10
2018-11-26T20:44:46.255Z,85.30
2018-11-26T20:47:13.696Z,87.60
2018-11-26T20:49:42.512Z,86.80
2018-11-26T20:52:11.311Z,86.90
2018-11-26T20:54:41.264Z,85.10
2018-11-26T20:57:08.722Z,84.80
2018-11-26T20:59:35.538Z,86.10
2018-11-26T21:02:02.983Z,86.50
2018-11-26T21:04:30.779Z,86.20
2018-11-26T21:07:01.242Z,85.60
2018-11-26T21:09:30.173Z,85.50
2018-11-26T21:14:43.458Z,86.20
2018-11-26T21:17:10.123Z,85.70
2018-11-26T21:19:40.089Z,86.30
2018-11-26T21:22:07.572Z,87.10
2018-11-26T21:24:36.280Z,86.40
2018-11-26T21:27:04.344Z,85.50
2018-11-26T21:29:32.626Z,84.40
2018-11-26T21:34:47.272Z,84.60
2018-11-26T21:37:13.704Z,83.90
2018-11-26T21:42:29.426Z,85.10
2018-11-26T21:44:59.690Z,84.80
2018-11-26T21:47:29.160Z,84.40
2018-11-26T21:49:55.885Z,84.90
2018-11-26T21:52:24.552Z,85.30
2018-11-26T21:54:51.008Z,84.70
2018-11-26T21:57:18.924Z,83.50
2018-11-26T21:59:47.875Z,82.40
2018-11-26T22:02:14.770Z,82.60
2018-11-26T22:07:32.414Z,82.30
2018-11-26T22:10:01.920Z,82.20
2018-11-26T22:12:32.470Z,83.10
2018-11-26T22:15:00.379Z,82.10
2018-11-26T22:17:29.845Z,82.50
2018-11-26T22:20:00.763Z,82.30
2018-11-26T22:25:17.287Z,83.10
2018-11-26T22:27:45.500Z,83.80
2018-11-26T22:30:12.979Z,84.10
2018-11-26T22:32:41.755Z,84.70
2018-11-26T22:35:08.423Z,82.90
2018-11-26T22:37:40.728Z,81.20
2018-11-26T22:42:55.421Z,83.30
2018-11-26T22:45:23.157Z,85.70
2018-11-26T22:47:54.877Z,84.00
2018-11-26T22:50:22.565Z,80.50
2018-11-26T22:58:24.139Z,80.40
2018-11-26T23:00:50.603Z,81.40
2018-11-26T23:03:18.837Z,79.40
2018-11-26T23:05:52.212Z,80.00
2018-11-26T23:08:19.904Z,80.00
2018-11-26T23:10:50.996Z,80.70
2018-11-26T23:13:19.184Z,79.50
2018-11-26T23:15:49.113Z,79.60
2018-11-26T23:21:04.345Z,79.10
2018-11-26T23:23:32.533Z,78.40
2018-11-26T23:26:01.705Z,79.30
2018-11-26T23:28:29.558Z,79.30
2018-11-26T23:31:00.137Z,79.90
2018-11-26T23:33:29.018Z,79.50
2018-11-26T23:35:56.471Z,78.70
2018-11-26T23:38:23.007Z,79.80
2018-11-26T23:40:50.154Z,79.80
2018-11-26T23:43:16.598Z,78.90
2018-11-26T23:45:47.437Z,79.10
2018-11-26T23:48:15.484Z,80.60
2018-11-26T23:51:00.544Z,81.20
2018-11-26T23:53:31.417Z,80.00
2018-11-26T23:56:01.923Z,79.10
